Ingeniero Foster, Argentina
Current Conditions -  °F | °C
As of 1:00 PM on Friday 19 Dec 2014 (Local Time) from SAOC Reporting Station
Clear Clear  
Wind Chill: 91°   Ceiling: Unl
Heat Index: 91°   Visibility: 6mi
Dew Point: 57°   Wind: 22mph
Humidity: 31%   Direction: 360°N
Pressure: 29.59"   Gusts: NA
Location:  35.69°S, 65.08°W
Report Text: SAOC 191600Z 36019KT CAVOK 33/14 Q1002
Loading
Personal Weather Stations






























Interactive Weather Map New forecast layout! Learn more

10-Day Weather Forecast

Advertisements
Track Severe Weather on mobile